Orange Grove, Mississippi
Current Conditions -  °F | °C
As of 1:53 PM on Wednesday 26 Nov 2014 (Local Time) from KGPT Reporting Station
Clear Clear  
Wind Chill: 57°   Ceiling: Unl
Heat Index: 57°   Visibility: 10mi
Dew Point: 36°   Wind: 9mph
Humidity: 45%   Direction: 220°SW
Pressure: 30.19"   Gusts: NA
Location:  30.45°N, 89.08°W
Report Text: KGPT 261953Z 22008KT 180V260 10SM CLR 14/02 A3019 RMK AO2 SLP223 T01390022
Loading
Personal Weather Stations






























Interactive Weather Map New forecast layout! Learn more

10-Day Weather Forecast

Advertisements
Track Severe Weather on mobile